createdAt,value
2017-10-13T00:00:03.717Z,5.40
2017-10-13T00:00:07.964Z,5.30
2017-10-13T00:00:12.237Z,5.43
2017-10-13T00:00:16.494Z,5.35
2017-10-13T00:00:22.912Z,5.40
2017-10-13T00:00:27.171Z,5.60
2017-10-13T00:00:31.419Z,5.70
2017-10-13T00:00:36.471Z,5.65
2017-10-13T00:00:41.588Z,5.57
2017-10-13T00:00:45.888Z,5.33
2017-10-13T00:00:50.153Z,5.07
2017-10-13T00:00:54.405Z,5.00
2017-10-13T00:00:58.673Z,5.10
2017-10-13T00:01:02.971Z,5.17
2017-10-13T00:01:07.284Z,5.20
2017-10-13T00:01:12.432Z,5.20
2017-10-13T00:01:17.428Z,5.20
2017-10-13T00:01:22.440Z,5.20
2017-10-13T00:01:27.461Z,5.00
2017-10-13T00:01:32.487Z,5.10
2017-10-13T00:01:36.744Z,5.10
2017-10-13T00:01:41.010Z,5.10
2017-10-13T00:01:45.316Z,5.10
2017-10-13T00:01:49.692Z,5.25
2017-10-13T00:01:53.965Z,5.20
2017-10-13T00:01:58.222Z,5.20
2017-10-13T00:02:02.491Z,5.20
2017-10-13T00:02:07.486Z,5.10
2017-10-13T00:02:12.523Z,5.13
2017-10-13T00:02:16.799Z,5.17
2017-10-13T00:02:21.058Z,5.10
2017-10-13T00:02:25.304Z,5.15
2017-10-13T00:02:30.335Z,5.10
2017-10-13T00:02:35.352Z,5.10
2017-10-13T00:02:39.643Z,5.10
2017-10-13T00:02:44.668Z,5.20
2017-10-13T00:02:49.777Z,5.03
2017-10-13T00:02:54.803Z,5.17
2017-10-13T00:02:59.153Z,5.00
2017-10-13T00:03:03.404Z,5.10
2017-10-13T00:03:08.447Z,5.15
2017-10-13T00:03:12.696Z,5.03
2017-10-13T00:03:16.953Z,5.10
2017-10-13T00:03:21.205Z,5.20
2017-10-13T00:03:26.243Z,5.63
2017-10-13T00:03:31.272Z,5.60
2017-10-13T00:03:36.325Z,5.53
2017-10-13T00:03:40.576Z,5.43
2017-10-13T00:03:45.593Z,5.50
2017-10-13T00:03:49.924Z,5.57
2017-10-13T00:03:54.180Z,5.40
2017-10-13T00:03:59.375Z,5.45
2017-10-13T00:04:03.619Z,5.40
2017-10-13T00:04:08.700Z,5.40
2017-10-13T00:04:12.928Z,5.43
2017-10-13T00:04:17.205Z,5.40
2017-10-13T00:04:21.460Z,5.40
2017-10-13T00:04:25.724Z,5.25
2017-10-13T00:04:30.014Z,5.40
2017-10-13T00:04:35.101Z,5.33
2017-10-13T00:04:39.345Z,5.40
2017-10-13T00:04:43.652Z,5.45
2017-10-13T00:04:47.916Z,5.50
2017-10-13T00:04:52.185Z,5.40
2017-10-13T00:04:56.445Z,5.40
2017-10-13T00:05:00.699Z,5.40
2017-10-13T00:05:05.734Z,5.40
2017-10-13T00:05:09.988Z,5.33
2017-10-13T00:05:15.016Z,5.50
2017-10-13T00:05:20.057Z,5.50
2017-10-13T00:05:24.304Z,5.30
2017-10-13T00:05:28.570Z,5.10
2017-10-13T00:05:32.828Z,5.20
2017-10-13T00:05:37.850Z,5.20
2017-10-13T00:05:42.920Z,5.47
2017-10-13T00:05:47.179Z,5.50
2017-10-13T00:05:51.480Z,5.55
2017-10-13T00:05:55.732Z,5.60
2017-10-13T00:05:59.991Z,5.65
2017-10-13T00:06:04.233Z,5.70
2017-10-13T00:06:08.507Z,6.05
2017-10-13T00:06:12.760Z,6.07
2017-10-13T00:06:17.787Z,6.00
2017-10-13T00:06:22.082Z,5.90
2017-10-13T00:06:26.333Z,5.95
2017-10-13T00:06:30.589Z,5.97
2017-10-13T00:06:35.631Z,5.90
2017-10-13T00:06:39.924Z,5.87
2017-10-13T00:06:44.921Z,5.55
2017-10-13T00:06:49.951Z,5.50
2017-10-13T00:06:54.227Z,5.53
2017-10-13T00:06:58.482Z,5.70
2017-10-13T00:07:02.820Z,5.70
2017-10-13T00:07:07.097Z,5.55
2017-10-13T00:07:11.347Z,5.40
2017-10-13T00:07:15.608Z,5.50
2017-10-13T00:07:19.945Z,5.50
2017-10-13T00:07:24.968Z,5.70
2017-10-13T00:07:29.989Z,5.63
2017-10-13T00:07:35.025Z,5.57
2017-10-13T00:07:39.293Z,5.40
2017-10-13T00:07:43.545Z,5.40
2017-10-13T00:07:47.796Z,5.30
2017-10-13T00:07:52.189Z,5.30
2017-10-13T00:07:56.469Z,5.13
2017-10-13T00:08:00.710Z,5.20
2017-10-13T00:08:05.006Z,5.30
2017-10-13T00:08:10.018Z,5.23
2017-10-13T00:08:15.028Z,5.03
2017-10-13T00:08:20.072Z,5.00
2017-10-13T00:08:25.081Z,4.93
2017-10-13T00:08:30.097Z,5.07
2017-10-13T00:08:34.348Z,5.13
2017-10-13T00:08:38.598Z,5.10
2017-10-13T00:08:43.615Z,5.20
2017-10-13T00:08:48.627Z,5.30
2017-10-13T00:08:52.879Z,5.20
2017-10-13T00:08:57.493Z,5.27
2017-10-13T00:09:02.525Z,5.10
2017-10-13T00:09:06.782Z,5.13
2017-10-13T00:09:11.045Z,5.20
2017-10-13T00:09:15.305Z,5.40
2017-10-13T00:09:19.608Z,5.50
2017-10-13T00:09:23.878Z,5.50
2017-10-13T00:09:28.149Z,5.40
2017-10-13T00:09:32.397Z,5.45
2017-10-13T00:09:36.666Z,5.55
2017-10-13T00:09:41.677Z,5.60
2017-10-13T00:09:46.691Z,5.57
2017-10-13T00:09:50.967Z,5.80
2017-10-13T00:09:55.202Z,5.65
2017-10-13T00:10:01.255Z,5.70
2017-10-13T00:10:06.368Z,5.56
2017-10-13T00:10:11.388Z,5.50
2017-10-13T00:10:16.456Z,5.37
2017-10-13T00:10:20.698Z,5.30
2017-10-13T00:10:25.716Z,5.35
2017-10-13T00:10:30.748Z,5.40
2017-10-13T00:10:35.848Z,5.40
2017-10-13T00:10:40.880Z,5.30
2017-10-13T00:10:45.893Z,5.40
2017-10-13T00:10:50.914Z,5.17
2017-10-13T00:10:55.977Z,5.20
2017-10-13T00:11:00.988Z,5.10
2017-10-13T00:11:05.289Z,5.27
2017-10-13T00:11:09.591Z,5.30
2017-10-13T00:11:13.839Z,5.30
2017-10-13T00:11:18.874Z,5.30
2017-10-13T00:11:23.927Z,5.20
2017-10-13T00:11:28.176Z,5.23
2017-10-13T00:11:32.450Z,5.23
2017-10-13T00:11:36.696Z,5.30
2017-10-13T00:11:41.712Z,5.40
2017-10-13T00:11:46.721Z,5.37
2017-10-13T00:11:51.745Z,5.40
2017-10-13T00:11:56.758Z,5.30
2017-10-13T00:12:01.013Z,5.33
2017-10-13T00:12:05.271Z,5.30
2017-10-13T00:12:10.361Z,5.40
2017-10-13T00:12:14.624Z,5.40
2017-10-13T00:12:18.992Z,5.40
2017-10-13T00:12:24.009Z,5.50
2017-10-13T00:12:29.069Z,5.40
2017-10-13T00:12:33.335Z,5.27
2017-10-13T00:12:37.584Z,5.20
2017-10-13T00:12:41.932Z,5.10
2017-10-13T00:12:47.039Z,5.10
2017-10-13T00:12:51.412Z,5.20
2017-10-13T00:12:55.752Z,5.10
2017-10-13T00:13:00.768Z,5.10
2017-10-13T00:13:05.790Z,5.07
2017-10-13T00:13:10.801Z,5.00
2017-10-13T00:13:15.843Z,5.00
2017-10-13T00:13:20.127Z,4.93
2017-10-13T00:13:25.157Z,5.00
2017-10-13T00:13:29.441Z,5.00
2017-10-13T00:13:34.460Z,5.15
2017-10-13T00:13:39.475Z,5.23
2017-10-13T00:13:44.490Z,5.30
2017-10-13T00:13:48.792Z,5.27
2017-10-13T00:13:53.056Z,5.20
2017-10-13T00:13:57.356Z,5.30
2017-10-13T00:14:01.605Z,5.30
2017-10-13T00:14:05.905Z,5.30
2017-10-13T00:14:10.164Z,5.30
2017-10-13T00:14:14.420Z,5.20
2017-10-13T00:14:18.711Z,5.20
2017-10-13T00:14:23.729Z,5.20
2017-10-13T00:14:28.890Z,5.07
2017-10-13T00:14:33.913Z,5.13
2017-10-13T00:14:38.169Z,5.07
2017-10-13T00:14:43.185Z,5.00
2017-10-13T00:14:48.228Z,5.00
2017-10-13T00:14:52.465Z,4.93
2017-10-13T00:14:56.804Z,4.90
2017-10-13T00:15:01.092Z,4.90
2017-10-13T00:15:05.382Z,4.95
2017-10-13T00:15:09.641Z,5.00
2017-10-13T00:15:13.898Z,4.85
2017-10-13T00:15:18.922Z,4.90
2017-10-13T00:15:23.936Z,4.97
2017-10-13T00:15:29.034Z,5.00
2017-10-13T00:15:33.281Z,5.03
2017-10-13T00:15:37.540Z,5.10
2017-10-13T00:15:42.659Z,5.30
2017-10-13T00:15:46.907Z,5.30
2017-10-13T00:15:51.159Z,5.55
2017-10-13T00:15:55.481Z,5.70
2017-10-13T00:16:00.521Z,5.70
2017-10-13T00:16:04.789Z,5.70
2017-10-13T00:16:09.071Z,5.70
2017-10-13T00:16:13.332Z,5.87
2017-10-13T00:16:17.584Z,5.90
2017-10-13T00:16:21.833Z,5.80
2017-10-13T00:16:26.082Z,5.90
2017-10-13T00:16:30.431Z,5.87
2017-10-13T00:16:35.464Z,5.70
2017-10-13T00:16:39.715Z,5.70
2017-10-13T00:16:44.725Z,5.70
2017-10-13T00:16:49.111Z,5.57
2017-10-13T00:16:53.378Z,5.57
2017-10-13T00:16:57.629Z,5.65
2017-10-13T00:17:02.052Z,5.80
2017-10-13T00:17:07.068Z,5.80
2017-10-13T00:17:12.090Z,5.70
2017-10-13T00:17:17.132Z,5.70
2017-10-13T00:17:21.379Z,5.70
2017-10-13T00:17:26.429Z,5.60
2017-10-13T00:17:30.680Z,5.50
2017-10-13T00:17:34.940Z,5.43
2017-10-13T00:17:39.217Z,5.30
2017-10-13T00:17:44.260Z,5.35
2017-10-13T00:17:48.600Z,5.40
2017-10-13T00:17:52.867Z,5.35
2017-10-13T00:17:57.137Z,5.27
2017-10-13T00:18:02.305Z,5.10
2017-10-13T00:18:06.560Z,5.00
2017-10-13T00:18:10.816Z,4.97
2017-10-13T00:18:15.891Z,4.90
2017-10-13T00:18:20.917Z,4.93
2017-10-13T00:18:25.208Z,5.00
2017-10-13T00:18:29.472Z,5.15
2017-10-13T00:18:33.733Z,5.33
2017-10-13T00:18:37.992Z,5.55
2017-10-13T00:18:42.275Z,5.60
2017-10-13T00:18:46.513Z,5.50
2017-10-13T00:18:51.527Z,5.50
2017-10-13T00:18:55.897Z,5.40
2017-10-13T00:19:00.136Z,5.40
2017-10-13T00:19:04.407Z,5.30
2017-10-13T00:19:08.888Z,5.30
2017-10-13T00:19:13.145Z,5.40
2017-10-13T00:19:18.189Z,5.30
2017-10-13T00:19:22.460Z,5.40
2017-10-13T00:19:27.502Z,5.67
2017-10-13T00:19:31.772Z,5.60
2017-10-13T00:19:36.788Z,5.60
2017-10-13T00:19:41.856Z,5.40
2017-10-13T00:19:46.102Z,5.40
2017-10-13T00:19:51.130Z,5.50
2017-10-13T00:19:55.499Z,5.50
2017-10-13T00:19:59.750Z,5.55
2017-10-13T00:20:03.995Z,5.70
2017-10-13T00:20:08.271Z,5.90
2017-10-13T00:20:12.570Z,5.97
2017-10-13T00:20:16.812Z,6.10
2017-10-13T00:20:21.293Z,6.10
2017-10-13T00:20:25.569Z,5.93
2017-10-13T00:20:29.811Z,6.00
2017-10-13T00:20:34.117Z,5.85
2017-10-13T00:20:39.164Z,5.70
2017-10-13T00:20:44.180Z,5.80
2017-10-13T00:20:49.241Z,5.67
2017-10-13T00:20:53.493Z,5.73
2017-10-13T00:20:58.507Z,5.80
2017-10-13T00:21:03.524Z,5.80
2017-10-13T00:21:08.630Z,5.73
2017-10-13T00:21:12.873Z,5.53
2017-10-13T00:21:17.140Z,5.50
2017-10-13T00:21:21.404Z,5.50
2017-10-13T00:21:25.655Z,5.35
2017-10-13T00:21:30.696Z,5.35
2017-10-13T00:21:34.973Z,5.60
2017-10-13T00:21:39.983Z,5.70
2017-10-13T00:21:45.000Z,5.63
2017-10-13T00:21:50.025Z,5.50
2017-10-13T00:21:54.274Z,5.53
2017-10-13T00:21:58.604Z,5.60
2017-10-13T00:22:02.859Z,5.55
2017-10-13T00:22:07.149Z,5.47
2017-10-13T00:22:12.174Z,5.50
2017-10-13T00:22:16.467Z,5.43
2017-10-13T00:22:20.716Z,5.50
2017-10-13T00:22:24.975Z,5.50
2017-10-13T00:22:29.273Z,5.25
2017-10-13T00:22:33.524Z,5.05
2017-10-13T00:22:37.778Z,5.03
2017-10-13T00:22:42.044Z,5.00
2017-10-13T00:22:47.064Z,5.10
2017-10-13T00:22:52.088Z,5.03
2017-10-13T00:22:57.186Z,5.00
2017-10-13T00:23:01.836Z,4.90
2017-10-13T00:23:06.084Z,4.90
2017-10-13T00:23:10.337Z,4.90
2017-10-13T00:23:14.596Z,5.00
2017-10-13T00:23:18.860Z,4.93
2017-10-13T00:23:23.119Z,4.90
2017-10-13T00:23:28.119Z,4.90
2017-10-13T00:23:32.376Z,5.03
2017-10-13T00:23:36.661Z,5.00
2017-10-13T00:23:40.907Z,5.05
2017-10-13T00:23:45.965Z,5.20
2017-10-13T00:23:50.217Z,5.30
2017-10-13T00:23:54.464Z,5.30
2017-10-13T00:23:58.721Z,5.20
2017-10-13T00:24:02.989Z,5.30
2017-10-13T00:24:07.241Z,5.25
2017-10-13T00:24:11.504Z,5.20
2017-10-13T00:24:15.825Z,5.20
2017-10-13T00:24:20.068Z,5.20
2017-10-13T00:24:24.348Z,5.20
2017-10-13T00:24:29.411Z,5.25
2017-10-13T00:24:33.660Z,5.33
2017-10-13T00:24:37.913Z,5.35
2017-10-13T00:24:42.256Z,5.45
2017-10-13T00:24:46.522Z,5.30
2017-10-13T00:24:50.777Z,5.30
2017-10-13T00:24:55.837Z,5.40
2017-10-13T00:25:00.085Z,5.37
2017-10-13T00:25:04.352Z,5.43
2017-10-13T00:25:08.724Z,5.60
2017-10-13T00:25:12.993Z,5.60
2017-10-13T00:25:17.256Z,5.60
2017-10-13T00:25:21.544Z,5.65
2017-10-13T00:25:25.806Z,5.70
2017-10-13T00:25:30.828Z,5.50
2017-10-13T00:25:35.084Z,5.40
2017-10-13T00:25:39.327Z,5.25
2017-10-13T00:25:44.344Z,5.25
2017-10-13T00:25:49.374Z,5.50
2017-10-13T00:25:53.623Z,5.47
2017-10-13T00:25:57.903Z,5.30
2017-10-13T00:26:02.164Z,5.30
2017-10-13T00:26:07.219Z,5.10
2017-10-13T00:26:11.474Z,4.93
2017-10-13T00:26:16.487Z,4.90
2017-10-13T00:26:21.545Z,4.80
2017-10-13T00:26:25.809Z,4.80
2017-10-13T00:26:30.070Z,4.90
2017-10-13T00:26:34.324Z,4.80
2017-10-13T00:26:39.328Z,4.80
2017-10-13T00:26:43.609Z,4.90
2017-10-13T00:26:47.868Z,4.80
2017-10-13T00:26:52.116Z,4.90
2017-10-13T00:26:56.406Z,5.10
2017-10-13T00:27:00.654Z,5.20
2017-10-13T00:27:04.941Z,5.20
2017-10-13T00:27:09.975Z,5.20
2017-10-13T00:27:14.232Z,5.20
2017-10-13T00:27:18.572Z,5.20
2017-10-13T00:27:22.838Z,5.23
2017-10-13T00:27:27.101Z,5.20
2017-10-13T00:27:31.372Z,5.30
2017-10-13T00:27:35.662Z,5.30
2017-10-13T00:27:40.692Z,5.20
2017-10-13T00:27:44.928Z,5.10
2017-10-13T00:27:49.185Z,5.05
2017-10-13T00:27:54.202Z,5.00
2017-10-13T00:27:59.208Z,4.90
2017-10-13T00:28:04.215Z,4.80
2017-10-13T00:28:08.571Z,4.80
2017-10-13T00:28:12.806Z,4.90
2017-10-13T00:28:17.052Z,4.90
2017-10-13T00:28:21.326Z,4.90
2017-10-13T00:28:25.568Z,4.83
2017-10-13T00:28:29.872Z,4.80
2017-10-13T00:28:34.122Z,4.80
2017-10-13T00:28:38.365Z,4.80
2017-10-13T00:28:42.620Z,4.60
2017-10-13T00:28:46.868Z,4.60
2017-10-13T00:28:51.128Z,4.60
2017-10-13T00:28:55.404Z,4.63
2017-10-13T00:28:59.648Z,4.80
2017-10-13T00:29:03.900Z,4.80
2017-10-13T00:29:08.163Z,4.80
2017-10-13T00:29:12.451Z,4.80
2017-10-13T00:29:16.715Z,4.90
2017-10-13T00:29:20.997Z,5.05
2017-10-13T00:29:25.231Z,5.10
2017-10-13T00:29:29.484Z,5.10
2017-10-13T00:29:33.744Z,5.20
2017-10-13T00:29:38.745Z,5.20
2017-10-13T00:29:42.996Z,5.37
2017-10-13T00:29:47.260Z,5.30
2017-10-13T00:29:52.303Z,5.30
2017-10-13T00:29:56.607Z,5.17
2017-10-13T00:30:00.935Z,5.10
2017-10-13T00:30:05.184Z,5.10
2017-10-13T00:30:10.212Z,5.20
2017-10-13T00:30:14.552Z,5.10
2017-10-13T00:30:18.777Z,4.85
2017-10-13T00:30:23.068Z,4.80
2017-10-13T00:30:27.335Z,4.95
2017-10-13T00:30:31.584Z,5.00
2017-10-13T00:30:35.840Z,4.90
2017-10-13T00:30:40.094Z,4.97
2017-10-13T00:30:45.128Z,4.90
2017-10-13T00:30:49.412Z,5.00
2017-10-13T00:30:55.227Z,5.00
2017-10-13T00:30:59.527Z,5.10
2017-10-13T00:31:04.574Z,5.20
2017-10-13T00:31:09.892Z,5.10
2017-10-13T00:31:14.163Z,5.10
2017-10-13T00:31:18.395Z,5.30
2017-10-13T00:31:23.409Z,5.35
2017-10-13T00:31:27.690Z,5.30
2017-10-13T00:31:32.041Z,5.07
2017-10-13T00:31:36.377Z,5.00
2017-10-13T00:31:40.644Z,5.10
2017-10-13T00:31:44.931Z,5.20
2017-10-13T00:31:49.961Z,5.25
2017-10-13T00:31:54.212Z,5.40
2017-10-13T00:31:58.465Z,5.35
2017-10-13T00:32:03.554Z,5.20
2017-10-13T00:32:08.593Z,5.20
2017-10-13T00:32:12.852Z,5.20
2017-10-13T00:32:17.098Z,5.20
2017-10-13T00:32:21.465Z,5.00
2017-10-13T00:32:25.732Z,5.00
2017-10-13T00:32:29.985Z,5.25
2017-10-13T00:32:35.108Z,5.20
2017-10-13T00:32:40.140Z,5.20
2017-10-13T00:32:44.393Z,5.17
2017-10-13T00:32:49.189Z,5.07
2017-10-13T00:32:53.442Z,4.90
2017-10-13T00:32:57.768Z,4.90
2017-10-13T00:33:02.089Z,5.10
2017-10-13T00:33:06.338Z,5.13
2017-10-13T00:33:11.369Z,5.20
2017-10-13T00:33:15.839Z,5.17
2017-10-13T00:33:20.101Z,5.10
2017-10-13T00:33:24.393Z,5.00
2017-10-13T00:33:28.692Z,4.85
2017-10-13T00:33:32.969Z,4.85
2017-10-13T00:33:37.976Z,5.00
2017-10-13T00:33:42.223Z,5.10
2017-10-13T00:33:46.473Z,5.10
2017-10-13T00:33:50.814Z,5.20
2017-10-13T00:33:55.813Z,5.30
2017-10-13T00:34:00.439Z,5.33
2017-10-13T00:34:04.738Z,5.30
2017-10-13T00:34:09.405Z,5.30
2017-10-13T00:34:13.648Z,5.43
2017-10-13T00:34:17.904Z,5.70
2017-10-13T00:34:22.177Z,5.70
2017-10-13T00:34:26.435Z,5.70
2017-10-13T00:34:30.693Z,5.70
2017-10-13T00:34:34.956Z,5.50
2017-10-13T00:34:39.215Z,5.47
2017-10-13T00:34:43.460Z,5.55
2017-10-13T00:34:47.721Z,5.70
2017-10-13T00:34:52.749Z,5.60
2017-10-13T00:34:57.772Z,5.60
2017-10-13T00:35:02.785Z,5.60
2017-10-13T00:35:07.860Z,5.60
2017-10-13T00:35:12.122Z,5.47
2017-10-13T00:35:16.392Z,5.30
2017-10-13T00:35:20.658Z,5.20
2017-10-13T00:35:24.936Z,5.30
2017-10-13T00:35:29.186Z,5.40
2017-10-13T00:35:33.436Z,5.50
2017-10-13T00:35:37.721Z,5.50
2017-10-13T00:35:41.980Z,5.47
2017-10-13T00:35:46.232Z,5.30
2017-10-13T00:35:50.520Z,5.30
2017-10-13T00:35:54.940Z,5.20
2017-10-13T00:35:59.180Z,5.20
2017-10-13T00:36:03.429Z,5.10
2017-10-13T00:36:08.220Z,5.10
2017-10-13T00:36:13.259Z,5.10
2017-10-13T00:36:17.589Z,5.10
2017-10-13T00:36:21.868Z,5.10
2017-10-13T00:36:26.111Z,5.10
2017-10-13T00:36:30.369Z,5.10
2017-10-13T00:36:34.628Z,5.13
2017-10-13T00:36:38.872Z,5.40
2017-10-13T00:36:43.131Z,5.40
2017-10-13T00:36:47.381Z,5.45
2017-10-13T00:36:51.657Z,5.47
2017-10-13T00:36:55.905Z,5.40
2017-10-13T00:37:00.170Z,5.40
2017-10-13T00:37:04.409Z,5.40
2017-10-13T00:37:08.696Z,5.50
2017-10-13T00:37:13.947Z,5.50
2017-10-13T00:37:18.193Z,5.50
2017-10-13T00:37:22.455Z,5.40
2017-10-13T00:37:26.702Z,5.35
2017-10-13T00:37:30.964Z,5.30
2017-10-13T00:37:36.012Z,5.10
2017-10-13T00:37:40.266Z,5.00
2017-10-13T00:37:44.528Z,5.05
2017-10-13T00:37:48.808Z,4.90
2017-10-13T00:37:53.071Z,5.05
2017-10-13T00:37:57.317Z,5.30
2017-10-13T00:38:01.610Z,5.30
2017-10-13T00:38:05.856Z,5.40
2017-10-13T00:38:10.122Z,5.30
2017-10-13T00:38:14.440Z,5.43
2017-10-13T00:38:18.692Z,5.55
2017-10-13T00:38:22.951Z,5.70
2017-10-13T00:38:27.268Z,5.70
2017-10-13T00:38:32.329Z,5.70
2017-10-13T00:38:36.576Z,5.80
2017-10-13T00:38:40.883Z,5.80
2017-10-13T00:38:45.204Z,5.80
2017-10-13T00:38:50.228Z,5.80
2017-10-13T00:38:55.252Z,5.67
2017-10-13T00:39:00.313Z,5.53
2017-10-13T00:39:04.552Z,5.43
2017-10-13T00:39:08.808Z,5.60
2017-10-13T00:39:13.841Z,5.53
2017-10-13T00:39:18.101Z,5.40
2017-10-13T00:39:22.376Z,5.30
2017-10-13T00:39:26.644Z,5.35
2017-10-13T00:39:30.934Z,5.50
2017-10-13T00:39:35.184Z,5.40
2017-10-13T00:39:39.458Z,5.65
2017-10-13T00:39:43.724Z,5.65
2017-10-13T00:39:48.072Z,5.60
2017-10-13T00:39:52.320Z,5.40
2017-10-13T00:39:56.577Z,5.30
2017-10-13T00:40:00.837Z,5.40
2017-10-13T00:40:05.092Z,5.40
2017-10-13T00:40:10.137Z,5.25
2017-10-13T00:40:15.140Z,5.30
2017-10-13T00:40:19.399Z,5.17
2017-10-13T00:40:23.650Z,5.20
2017-10-13T00:40:27.940Z,5.30
2017-10-13T00:40:32.962Z,5.40
2017-10-13T00:40:37.212Z,5.37
2017-10-13T00:40:41.565Z,5.10
2017-10-13T00:40:46.576Z,5.20
2017-10-13T00:40:51.590Z,5.23
2017-10-13T00:40:56.628Z,5.57
2017-10-13T00:41:00.902Z,5.60
2017-10-13T00:41:05.924Z,5.60
2017-10-13T00:41:10.942Z,5.60
2017-10-13T00:41:15.999Z,5.60
2017-10-13T00:41:20.325Z,5.70
2017-10-13T00:41:24.593Z,5.67
2017-10-13T00:41:28.865Z,5.45
2017-10-13T00:41:33.172Z,5.30
2017-10-13T00:41:37.424Z,5.30
2017-10-13T00:41:41.707Z,5.30
2017-10-13T00:41:45.952Z,5.25
2017-10-13T00:41:50.201Z,5.20
2017-10-13T00:41:54.484Z,4.97
2017-10-13T00:41:58.741Z,4.85
2017-10-13T00:42:02.984Z,5.00
2017-10-13T00:42:07.250Z,5.15
2017-10-13T00:42:11.508Z,5.30
2017-10-13T00:42:15.771Z,5.65
2017-10-13T00:42:20.844Z,5.75
2017-10-13T00:42:25.100Z,5.70
2017-10-13T00:42:29.355Z,5.70
2017-10-13T00:42:33.607Z,5.70
2017-10-13T00:42:37.873Z,5.70
2017-10-13T00:42:42.104Z,5.70
2017-10-13T00:42:46.375Z,5.80
2017-10-13T00:42:50.629Z,5.90
2017-10-13T00:42:54.875Z,5.90
2017-10-13T00:42:59.913Z,5.80
2017-10-13T00:43:04.207Z,5.63
2017-10-13T00:43:08.459Z,5.50
2017-10-13T00:43:12.713Z,5.45
2017-10-13T00:43:17.736Z,5.30
2017-10-13T00:43:22.755Z,5.45
2017-10-13T00:43:27.026Z,5.50
2017-10-13T00:43:31.256Z,5.60
2017-10-13T00:43:36.300Z,5.70
2017-10-13T00:43:40.572Z,5.83
2017-10-13T00:43:45.588Z,5.90
2017-10-13T00:43:49.837Z,6.07
2017-10-13T00:43:54.135Z,6.20
2017-10-13T00:43:58.386Z,6.20
2017-10-13T00:44:02.630Z,6.20
2017-10-13T00:44:06.888Z,6.20
2017-10-13T00:44:11.941Z,6.20
2017-10-13T00:44:16.173Z,6.03
2017-10-13T00:44:20.472Z,5.90
2017-10-13T00:44:24.704Z,5.75
2017-10-13T00:44:29.748Z,5.73
2017-10-13T00:44:34.085Z,5.77
2017-10-13T00:44:38.338Z,5.60
2017-10-13T00:44:42.604Z,5.60
2017-10-13T00:44:46.865Z,5.40
2017-10-13T00:44:51.123Z,5.30
2017-10-13T00:44:56.145Z,5.30
2017-10-13T00:45:01.188Z,5.37
2017-10-13T00:45:05.443Z,5.37
2017-10-13T00:45:09.710Z,5.30
2017-10-13T00:45:13.997Z,5.30
2017-10-13T00:45:18.250Z,5.30
2017-10-13T00:45:22.497Z,5.35
2017-10-13T00:45:26.785Z,5.33
2017-10-13T00:45:31.062Z,5.30
2017-10-13T00:45:35.336Z,5.40
2017-10-13T00:45:39.599Z,5.50
2017-10-13T00:45:43.862Z,5.85
2017-10-13T00:45:48.884Z,5.80
2017-10-13T00:45:53.983Z,5.60
2017-10-13T00:45:58.240Z,5.50
2017-10-13T00:46:02.519Z,5.40
2017-10-13T00:46:06.778Z,5.40
2017-10-13T00:46:11.026Z,5.40
2017-10-13T00:46:15.276Z,5.50
2017-10-13T00:46:19.545Z,5.50
2017-10-13T00:46:24.107Z,5.50
2017-10-13T00:46:29.129Z,5.50
2017-10-13T00:46:34.230Z,5.40
2017-10-13T00:46:38.502Z,5.37
2017-10-13T00:46:42.771Z,4.95
2017-10-13T00:46:47.032Z,4.90
2017-10-13T00:46:52.061Z,5.17
2017-10-13T00:46:56.316Z,5.33
2017-10-13T00:47:00.593Z,5.50
2017-10-13T00:47:04.845Z,5.30
2017-10-13T00:47:09.098Z,5.30
2017-10-13T00:47:13.532Z,5.20
2017-10-13T00:47:18.592Z,5.25
2017-10-13T00:47:23.616Z,5.33
2017-10-13T00:47:29.374Z,5.67
2017-10-13T00:47:33.658Z,5.97
2017-10-13T00:47:38.652Z,5.90
2017-10-13T00:47:43.157Z,5.80
2017-10-13T00:47:47.461Z,5.80
2017-10-13T00:47:51.715Z,5.60
2017-10-13T00:47:55.975Z,5.57
2017-10-13T00:48:01.031Z,5.50
2017-10-13T00:48:05.276Z,5.57
2017-10-13T00:48:09.530Z,5.70
2017-10-13T00:48:13.830Z,5.70
2017-10-13T00:48:18.094Z,5.60
2017-10-13T00:48:23.115Z,5.60
2017-10-13T00:48:28.130Z,5.37
2017-10-13T00:48:33.220Z,5.37
2017-10-13T00:48:37.458Z,5.23
2017-10-13T00:48:42.472Z,5.30
2017-10-13T00:48:47.529Z,5.30
2017-10-13T00:48:51.760Z,5.35
2017-10-13T00:48:56.813Z,5.45
2017-10-13T00:49:01.408Z,5.50
2017-10-13T00:49:05.653Z,5.50
2017-10-13T00:49:09.919Z,5.50
2017-10-13T00:49:15.156Z,5.60
2017-10-13T00:49:19.412Z,5.60
2017-10-13T00:49:23.787Z,5.63
2017-10-13T00:49:28.034Z,5.35
2017-10-13T00:49:33.061Z,5.30
2017-10-13T00:49:37.324Z,5.30
2017-10-13T00:49:41.581Z,5.30
2017-10-13T00:49:45.832Z,5.40
2017-10-13T00:49:50.233Z,5.30
2017-10-13T00:49:54.576Z,5.20
2017-10-13T00:49:58.832Z,5.20
2017-10-13T00:50:03.080Z,5.20
2017-10-13T00:50:07.380Z,5.20
2017-10-13T00:50:11.644Z,5.23
2017-10-13T00:50:15.894Z,5.25
2017-10-13T00:50:20.184Z,5.30
2017-10-13T00:50:24.432Z,5.30
2017-10-13T00:50:28.744Z,5.40
2017-10-13T00:50:33.031Z,5.40
2017-10-13T00:50:37.265Z,5.40
2017-10-13T00:50:42.281Z,5.33
2017-10-13T00:50:46.599Z,5.47
2017-10-13T00:50:50.859Z,5.50
2017-10-13T00:51:05.654Z,5.68
2017-10-13T00:51:09.906Z,5.60
2017-10-13T00:51:14.265Z,5.50
2017-10-13T00:51:18.543Z,5.33
2017-10-13T00:51:22.772Z,5.30
2017-10-13T00:51:27.157Z,5.20
2017-10-13T00:51:32.174Z,5.17
2017-10-13T00:51:36.496Z,5.10
2017-10-13T00:51:40.837Z,5.30
2017-10-13T00:51:45.080Z,5.30
2017-10-13T00:51:49.336Z,5.40
2017-10-13T00:51:53.648Z,5.45
2017-10-13T00:51:57.871Z,5.45
2017-10-13T00:52:02.893Z,5.23
2017-10-13T00:52:07.180Z,5.10
2017-10-13T00:52:11.492Z,5.20
2017-10-13T00:52:16.513Z,5.25
2017-10-13T00:52:21.614Z,5.30
2017-10-13T00:52:25.868Z,5.23
2017-10-13T00:52:30.209Z,5.30
2017-10-13T00:52:34.473Z,5.40
2017-10-13T00:52:38.728Z,5.25
2017-10-13T00:52:43.763Z,5.10
2017-10-13T00:52:48.039Z,4.97
2017-10-13T00:52:57.479Z,4.90
2017-10-13T00:53:02.666Z,4.82
2017-10-13T00:53:07.299Z,4.90
2017-10-13T00:53:12.328Z,5.05
2017-10-13T00:53:16.604Z,5.30
2017-10-13T00:53:20.915Z,5.27
2017-10-13T00:53:25.936Z,5.40
2017-10-13T00:53:30.970Z,5.40
2017-10-13T00:53:35.213Z,5.40
2017-10-13T00:53:39.460Z,5.45
2017-10-13T00:53:43.744Z,5.63
2017-10-13T00:53:47.992Z,5.70
2017-10-13T00:53:52.262Z,5.70
2017-10-13T00:53:57.278Z,5.60
2017-10-13T00:54:02.299Z,5.60
2017-10-13T00:54:07.329Z,5.63
2017-10-13T00:54:11.589Z,5.33
2017-10-13T00:54:15.828Z,5.15
2017-10-13T00:54:20.122Z,5.30
2017-10-13T00:54:25.132Z,5.20
2017-10-13T00:54:30.173Z,5.23
2017-10-13T00:54:34.396Z,5.20
2017-10-13T00:54:38.656Z,5.40
2017-10-13T00:54:43.681Z,5.40
2017-10-13T00:54:47.968Z,5.20
2017-10-13T00:54:52.212Z,5.20
2017-10-13T00:54:56.476Z,5.30
2017-10-13T00:55:01.492Z,5.40
2017-10-13T00:55:06.536Z,5.40
2017-10-13T00:55:10.801Z,5.47
2017-10-13T00:55:15.821Z,5.50
2017-10-13T00:55:20.872Z,5.43
2017-10-13T00:55:25.138Z,5.60
2017-10-13T00:55:30.168Z,5.57
2017-10-13T00:55:35.212Z,5.40
2017-10-13T00:55:39.489Z,5.27
2017-10-13T00:55:44.495Z,5.10
2017-10-13T00:55:49.524Z,5.10
2017-10-13T00:55:54.541Z,5.00
2017-10-13T00:55:58.800Z,5.00
2017-10-13T00:56:03.058Z,4.85
2017-10-13T00:56:08.073Z,4.80
2017-10-13T00:56:12.332Z,4.70
2017-10-13T00:56:16.693Z,4.80
2017-10-13T00:56:20.961Z,4.75
2017-10-13T00:56:25.228Z,4.60
2017-10-13T00:56:29.477Z,4.65
2017-10-13T00:56:33.769Z,4.60
2017-10-13T00:56:38.025Z,4.77
2017-10-13T00:56:42.364Z,4.90
2017-10-13T00:56:46.652Z,4.95
2017-10-13T00:56:50.900Z,5.10
2017-10-13T00:56:55.711Z,5.15
2017-10-13T00:57:00.093Z,5.30
2017-10-13T00:57:04.388Z,5.45
2017-10-13T00:57:09.418Z,5.50
2017-10-13T00:57:13.721Z,5.47
2017-10-13T00:57:17.981Z,5.33
2017-10-13T00:57:22.285Z,5.55
2017-10-13T00:57:26.580Z,5.75
2017-10-13T00:57:30.835Z,5.87
2017-10-13T00:57:35.177Z,5.90
2017-10-13T00:57:39.444Z,5.85
2017-10-13T00:57:43.685Z,5.80
2017-10-13T00:57:47.969Z,5.73
2017-10-13T00:57:52.216Z,5.85
2017-10-13T00:57:56.497Z,5.75
2017-10-13T00:58:01.603Z,5.63
2017-10-13T00:58:05.880Z,5.60
2017-10-13T00:58:10.153Z,5.60
2017-10-13T00:58:14.401Z,5.60
2017-10-13T00:58:18.660Z,5.57
2017-10-13T00:58:22.924Z,5.50
2017-10-13T00:58:27.955Z,5.20
2017-10-13T00:58:32.990Z,5.10
2017-10-13T00:58:37.247Z,5.10
2017-10-13T00:58:41.520Z,5.27
2017-10-13T00:58:45.790Z,5.25
2017-10-13T00:58:50.060Z,5.15
2017-10-13T00:58:55.685Z,5.10
2017-10-13T00:58:59.957Z,5.18
2017-10-13T00:59:04.200Z,5.05
2017-10-13T00:59:09.211Z,5.20
2017-10-13T00:59:14.232Z,5.10
2017-10-13T00:59:19.257Z,5.30
2017-10-13T00:59:24.279Z,5.20
2017-10-13T00:59:29.305Z,5.27
2017-10-13T00:59:33.612Z,5.30
2017-10-13T00:59:37.880Z,5.40
2017-10-13T00:59:42.134Z,5.40
2017-10-13T00:59:46.404Z,5.30
2017-10-13T00:59:50.693Z,5.40
2017-10-13T00:59:55.718Z,5.45
2017-10-13T01:00:00.736Z,5.43
2017-10-13T01:00:05.753Z,5.50
2017-10-13T01:00:10.024Z,5.53
2017-10-13T01:00:14.295Z,5.60
2017-10-13T01:00:18.552Z,5.30